Time;durP1;ratioP1;P1;durP2;ratioP2;P2;SDS_P1;SDS_P2;PMS_P1;PMS_P2;Temp;Humidity;BMP_temperature;BMP_pressure;BME280_temperature;BME280_humidity;BME280_pressure;Samples;Min_cycle;Max_cycle;Signal;HPM_P1;HPM_P2
2021/11/23 00:00:19;;;;;;;23.30;10.00;;;;;;;;;;4941237;28;20029;-81
2021/11/23 00:02:46;;;;;;;18.75;7.78;;;;;;;;;;4950364;28;20034;-80
2021/11/23 00:05:14;;;;;;;16.30;7.78;;;;;;;;;;4929343;28;20053;-82
2021/11/23 00:08:03;;;;;;;18.13;8.45;;;;;;;;;;4942714;28;20046;-80
2021/11/23 00:10:34;;;;;;;16.98;8.38;;;;;;;;;;4919755;28;20031;-80
2021/11/23 00:13:03;;;;;;;17.60;7.47;;;;;;;;;;4908815;28;20039;-81
2021/11/23 00:15:36;;;;;;;19.33;7.72;;;;;;;;;;4903991;28;20044;-80
2021/11/23 00:18:06;;;;;;;16.10;7.63;;;;;;;;;;4905112;29;20048;-80
2021/11/23 00:20:36;;;;;;;14.82;7.03;;;;;;;;;;4890025;29;20109;-81
2021/11/23 00:23:07;;;;;;;14.48;6.78;;;;;;;;;;4876480;29;20054;-81
2021/11/23 00:25:36;;;;;;;16.20;6.88;;;;;;;;;;4882925;29;20047;-79
2021/11/23 00:28:03;;;;;;;15.48;7.05;;;;;;;;;;4913407;29;20808;-82
2021/11/23 00:30:30;;;;;;;16.45;7.10;;;;;;;;;;4909966;28;20099;-81
2021/11/23 00:32:57;;;;;;;;;;;;;;;;;;4908283;29;20054;-80
2021/11/23 00:35:24;;;;;;;;;;;;;;;;;;4902999;28;20422;-81
2021/11/23 00:37:54;;;;;;;15.05;6.70;;;;;;;;;;4904329;29;19919;-82
2021/11/23 00:40:25;;;;;;;16.67;7.00;;;;;;;;;;4904244;29;20035;-81
2021/11/23 00:42:52;;;;;;;14.00;6.15;;;;;;;;;;4902212;29;20606;-80
2021/11/23 00:45:20;;;;;;;14.07;6.15;;;;;;;;;;4904859;28;20401;-81
2021/11/23 00:47:48;;;;;;;16.58;6.50;;;;;;;;;;4911824;29;20031;-81
2021/11/23 00:50:25;;;;;;;12.48;6.18;;;;;;;;;;4909216;28;20491;-81
2021/11/23 00:52:52;;;;;;;15.95;6.32;;;;;;;;;;4914637;29;20614;-80
2021/11/23 00:55:19;;;;;;;17.88;6.15;;;;;;;;;;4926647;28;20034;-81
2021/11/23 00:57:46;;;;;;;15.23;6.18;;;;;;;;;;4927984;28;20035;-81
2021/11/23 01:00:14;;;;;;;15.30;5.57;;;;;;;;;;4931517;28;20069;-81
2021/11/23 01:02:42;;;;;;;17.08;6.07;;;;;;;;;;4953559;28;20038;-81
2021/11/23 01:05:09;;;;;;;16.02;6.20;;;;;;;;;;4919969;28;20039;-81
2021/11/23 01:07:36;;;;;;;15.13;5.85;;;;;;;;;;4940663;28;20107;-81
2021/11/23 01:10:02;;;;;;;;;;;;;;;;;;4938992;28;20035;-81
2021/11/23 01:12:29;;;;;;;16.80;5.90;;;;;;;;;;4952856;28;19929;-81
2021/11/23 01:14:56;;;;;;;15.52;6.00;;;;;;;;;;4953731;28;20073;-81
2021/11/23 01:17:25;;;;;;;16.48;6.05;;;;;;;;;;4936652;28;20051;-81
2021/11/23 01:19:51;;;;;;;14.23;5.45;;;;;;;;;;4944083;28;20145;-81
2021/11/23 01:22:17;;;;;;;19.38;6.65;;;;;;;;;;4936389;28;20035;-82
2021/11/23 01:24:47;;;;;;;15.27;6.50;;;;;;;;;;4942318;28;20047;-81
2021/11/23 01:27:14;;;;;;;13.63;5.57;;;;;;;;;;4950821;28;20145;-82
2021/11/23 01:29:42;;;;;;;17.15;6.07;;;;;;;;;;4939274;28;20035;-82
2021/11/23 01:32:10;;;;;;;15.32;5.75;;;;;;;;;;4953055;28;20066;-83
2021/11/23 01:34:39;;;;;;;14.18;5.75;;;;;;;;;;4940163;28;20062;-84
2021/11/23 01:37:07;;;;;;;17.52;5.75;;;;;;;;;;4937741;28;20119;-85
2021/11/23 01:39:34;;;;;;;14.82;5.93;;;;;;;;;;4941237;28;20796;-86
2021/11/23 01:42:04;;;;;;;13.25;5.50;;;;;;;;;;4961777;28;20085;-87
2021/11/23 01:44:30;;;;;;;16.58;5.70;;;;;;;;;;4920463;29;21048;-86
2021/11/23 01:46:58;;;;;;;14.27;5.20;;;;;;;;;;4914761;28;20046;-84
2021/11/23 01:49:27;;;;;;;12.52;5.90;;;;;;;;;;4897100;29;20048;-85
2021/11/23 01:51:54;;;;;;;15.30;5.97;;;;;;;;;;4896447;29;20038;-84
2021/11/23 01:54:26;;;;;;;15.85;5.57;;;;;;;;;;4903923;29;20047;-83
2021/11/23 01:56:59;;;;;;;14.10;5.30;;;;;;;;;;4904128;29;20035;-84
2021/11/23 01:59:27;;;;;;;17.70;5.65;;;;;;;;;;4908251;29;20046;-84
2021/11/23 02:01:54;;;;;;;15.27;5.57;;;;;;;;;;4912849;29;20114;-84
2021/11/23 02:04:32;;;;;;;15.60;5.35;;;;;;;;;;4910815;29;20066;-84
2021/11/23 02:06:59;;;;;;;14.00;4.95;;;;;;;;;;4863965;29;20103;-84
2021/11/23 02:09:27;;;;;;;;;;;;;;;;;;4880179;29;20103;-83
2021/11/23 02:11:56;;;;;;;14.05;4.80;;;;;;;;;;4908043;29;20515;-84
2021/11/23 02:14:26;;;;;;;17.10;4.80;;;;;;;;;;4911259;29;20190;-84
2021/11/23 02:16:54;;;;;;;13.00;4.72;;;;;;;;;;4898464;29;20525;-85
2021/11/23 02:19:24;;;;;;;12.63;4.63;;;;;;;;;;4909416;29;20047;-84
2021/11/23 02:21:52;;;;;;;11.95;4.65;;;;;;;;;;4894385;29;20120;-84
2021/11/23 02:24:19;;;;;;;12.70;4.90;;;;;;;;;;4868057;29;20611;-84
2021/11/23 02:26:47;;;;;;;15.57;4.90;;;;;;;;;;4874038;29;20047;-84
2021/11/23 02:29:15;;;;;;;12.13;4.65;;;;;;;;;;4873336;29;20045;-85
2021/11/23 02:31:43;;;;;;;14.68;4.68;;;;;;;;;;4884502;29;20029;-85
2021/11/23 02:34:12;;;;;;;12.40;4.22;;;;;;;;;;4875988;29;20170;-85
2021/11/23 02:36:41;;;;;;;15.90;5.13;;;;;;;;;;4876440;29;20049;-85
2021/11/23 02:39:20;;;;;;;13.02;4.57;;;;;;;;;;4869369;29;20036;-85
2021/11/23 02:41:56;;;;;;;;;;;;;;;;;;4875719;29;20040;-85
2021/11/23 02:44:23;;;;;;;14.07;4.97;;;;;;;;;;4877732;29;19927;-85
2021/11/23 02:46:52;;;;;;;12.68;4.95;;;;;;;;;;4858081;29;20036;-86
2021/11/23 02:49:21;;;;;;;10.45;4.32;;;;;;;;;;4873960;29;20048;-87
2021/11/23 02:51:50;;;;;;;14.95;5.03;;;;;;;;;;4875410;29;20535;-85
2021/11/23 02:54:18;;;;;;;12.27;4.80;;;;;;;;;;4872950;29;20052;-86
2021/11/23 02:56:48;;;;;;;11.80;4.38;;;;;;;;;;4877436;29;20397;-86
2021/11/23 02:59:15;;;;;;;14.38;4.63;;;;;;;;;;4874119;29;20063;-86
2021/11/23 03:01:43;;;;;;;15.45;4.35;;;;;;;;;;4873834;29;20092;-86
2021/11/23 03:04:10;;;;;;;14.15;4.63;;;;;;;;;;4867576;29;20041;-85
2021/11/23 03:06:40;;;;;;;13.15;4.68;;;;;;;;;;4874272;29;20078;-86
2021/11/23 03:09:30;;;;;;;13.80;4.53;;;;;;;;;;4859060;29;20047;-85
2021/11/23 03:11:58;;;;;;;13.82;4.45;;;;;;;;;;4833288;29;20049;-85
2021/11/23 03:14:26;;;;;;;12.73;4.32;;;;;;;;;;4831796;29;20223;-86
2021/11/23 03:16:53;;;;;;;;;;;;;;;;;;4835687;29;20045;-84
2021/11/23 03:19:22;;;;;;;12.85;4.60;;;;;;;;;;4833843;29;19920;-86
2021/11/23 03:21:49;;;;;;;11.27;3.83;;;;;;;;;;4837785;29;20041;-85
2021/11/23 03:24:17;;;;;;;9.98;4.22;;;;;;;;;;4824524;29;20036;-85
2021/11/23 03:26:43;;;;;;;10.10;3.83;;;;;;;;;;4870101;29;20131;-85
2021/11/23 03:29:10;;;;;;;13.07;4.60;;;;;;;;;;4894169;29;20123;-84
2021/11/23 03:31:37;;;;;;;11.57;4.18;;;;;;;;;;4894763;29;21149;-84
2021/11/23 03:34:05;;;;;;;12.30;3.88;;;;;;;;;;4893014;29;20539;-84
2021/11/23 03:36:39;;;;;;;13.50;4.22;;;;;;;;;;4882447;29;20044;-84
2021/11/23 03:39:09;;;;;;;12.73;3.88;;;;;;;;;;4905839;29;20953;-85
2021/11/23 03:41:37;;;;;;;14.23;4.32;;;;;;;;;;4899180;29;20062;-85
2021/11/23 03:44:06;;;;;;;12.13;4.43;;;;;;;;;;4908146;29;20048;-85
2021/11/23 03:46:34;;;;;;;12.23;3.50;;;;;;;;;;4891186;29;20074;-85
2021/11/23 03:49:03;;;;;;;10.43;3.60;;;;;;;;;;4910215;29;20063;-86
2021/11/23 03:51:32;;;;;;;12.10;3.85;;;;;;;;;;4893907;29;20040;-86
2021/11/23 03:54:01;;;;;;;9.73;4.28;;;;;;;;;;4873383;29;20081;-86
2021/11/23 03:56:29;;;;;;;13.85;4.07;;;;;;;;;;4869330;29;20036;-84
2021/11/23 03:58:58;;;;;;;12.18;4.25;;;;;;;;;;4857480;29;20040;-86
2021/11/23 04:01:24;;;;;;;14.48;4.30;;;;;;;;;;4889177;29;20178;-85
2021/11/23 04:03:52;;;;;;;14.05;4.30;;;;;;;;;;4923596;29;20040;-84
2021/11/23 04:06:19;;;;;;;15.07;4.32;;;;;;;;;;4914688;29;20076;-85
2021/11/23 04:08:47;;;;;;;13.50;4.32;;;;;;;;;;4898925;29;20132;-85
2021/11/23 04:11:14;;;;;;;13.80;4.53;;;;;;;;;;4910114;29;20043;-85
2021/11/23 04:13:43;;;;;;;14.50;4.40;;;;;;;;;;4892595;29;20032;-84
2021/11/23 04:16:14;;;;;;;11.30;4.25;;;;;;;;;;4912000;29;20040;-85
2021/11/23 04:18:46;;;;;;;12.88;3.90;;;;;;;;;;4911937;29;20119;-86
2021/11/23 04:21:15;;;;;;;10.88;4.35;;;;;;;;;;4900449;29;20467;-85
2021/11/23 04:23:45;;;;;;;15.65;4.00;;;;;;;;;;4899567;29;20773;-85
2021/11/23 04:26:12;;;;;;;14.77;5.13;;;;;;;;;;4904837;29;20075;-85
2021/11/23 04:28:40;;;;;;;12.90;4.00;;;;;;;;;;4910116;29;20044;-88
2021/11/23 04:31:09;;;;;;;12.15;4.28;;;;;;;;;;4879689;29;20081;-86
2021/11/23 04:33:38;;;;;;;13.77;4.10;;;;;;;;;;4896376;29;20227;-86
2021/11/23 04:36:12;;;;;;;12.95;3.85;;;;;;;;;;4897255;29;20055;-86
2021/11/23 04:38:38;;;;;;;14.18;4.00;;;;;;;;;;4943558;28;20043;-86
2021/11/23 04:41:06;;;;;;;14.05;4.45;;;;;;;;;;4944998;28;20058;-85
2021/11/23 04:43:34;;;;;;;16.63;3.83;;;;;;;;;;4918961;28;20042;-87
2021/11/23 04:46:03;;;;;;;15.65;4.18;;;;;;;;;;4927875;28;20059;-86
2021/11/23 04:48:32;;;;;;;15.98;4.32;;;;;;;;;;4926966;28;20046;-86
2021/11/23 04:51:01;;;;;;;15.32;4.10;;;;;;;;;;4917571;28;20042;-86
2021/11/23 04:53:29;;;;;;;13.60;4.38;;;;;;;;;;4919666;28;20894;-87
2021/11/23 04:55:57;;;;;;;15.52;4.57;;;;;;;;;;4921675;29;20035;-85
2021/11/23 04:58:25;;;;;;;12.52;4.10;;;;;;;;;;4918578;28;20040;-86
2021/11/23 05:00:52;;;;;;;13.07;4.03;;;;;;;;;;4933917;29;20055;-85
2021/11/23 05:03:22;;;;;;;11.32;3.97;;;;;;;;;;4926284;28;20467;-86
2021/11/23 05:05:48;;;;;;;19.05;4.50;;;;;;;;;;4920582;29;20079;-85
2021/11/23 05:08:18;;;;;;;11.80;3.95;;;;;;;;;;4916444;28;20534;-85
2021/11/23 05:10:46;;;;;;;12.70;4.40;;;;;;;;;;4902256;29;20050;-84
2021/11/23 05:13:14;;;;;;;12.77;4.22;;;;;;;;;;4914046;28;20040;-85
2021/11/23 05:15:42;;;;;;;12.70;3.92;;;;;;;;;;4899178;29;20527;-84
2021/11/23 05:18:09;;;;;;;14.30;4.30;;;;;;;;;;4899088;29;20028;-85
2021/11/23 05:20:36;;;;;;;12.65;4.22;;;;;;;;;;4928143;28;20069;-84
2021/11/23 05:23:07;;;;;;;13.90;4.55;;;;;;;;;;4933510;28;20068;-84
2021/11/23 05:25:35;;;;;;;12.68;4.65;;;;;;;;;;4923166;28;20039;-84
2021/11/23 05:28:04;;;;;;;14.00;4.72;;;;;;;;;;4935105;28;20481;-84
2021/11/23 05:30:33;;;;;;;13.73;4.80;;;;;;;;;;4952750;28;20101;-85
2021/11/23 05:33:01;;;;;;;13.93;5.28;;;;;;;;;;4945836;28;20035;-84
2021/11/23 05:35:30;;;;;;;13.02;4.63;;;;;;;;;;4954591;28;20050;-85
2021/11/23 05:37:57;;;;;;;16.02;4.90;;;;;;;;;;4929677;28;20035;-85
2021/11/23 05:40:25;;;;;;;16.60;5.70;;;;;;;;;;4936693;28;20398;-85
2021/11/23 05:42:53;;;;;;;14.48;5.43;;;;;;;;;;4939238;28;20065;-85
2021/11/23 05:45:22;;;;;;;14.52;4.47;;;;;;;;;;4938596;28;20037;-85
2021/11/23 05:47:52;;;;;;;11.82;4.90;;;;;;;;;;4924549;28;20035;-86
2021/11/23 05:50:19;;;;;;;13.98;5.07;;;;;;;;;;4937214;28;20035;-86
2021/11/23 05:52:49;;;;;;;17.42;6.40;;;;;;;;;;4941628;28;20974;-85
2021/11/23 05:55:19;;;;;;;14.98;5.50;;;;;;;;;;4938232;28;20035;-85
2021/11/23 05:57:47;;;;;;;13.50;4.95;;;;;;;;;;4952366;28;20134;-85
2021/11/23 06:00:17;;;;;;;16.45;4.78;;;;;;;;;;4948151;28;20030;-85
2021/11/23 06:02:46;;;;;;;14.25;4.72;;;;;;;;;;4939271;28;20058;-84
2021/11/23 06:05:13;;;;;;;13.57;4.50;;;;;;;;;;4941854;28;20070;-85
2021/11/23 06:07:42;;;;;;;16.08;4.82;;;;;;;;;;4954291;28;20502;-85
2021/11/23 06:10:08;;;;;;;14.95;4.78;;;;;;;;;;4957596;28;20113;-86
2021/11/23 06:12:35;;;;;;;11.27;4.70;;;;;;;;;;4939300;28;20142;-86
2021/11/23 06:15:07;;;;;;;13.60;4.50;;;;;;;;;;4957075;28;20145;-85
2021/11/23 06:17:37;;;;;;;14.65;4.50;;;;;;;;;;4941179;28;20046;-85
2021/11/23 06:20:07;;;;;;;14.70;5.60;;;;;;;;;;4951752;28;20045;-86
2021/11/23 06:22:37;;;;;;;16.25;5.10;;;;;;;;;;4957555;28;20035;-86
2021/11/23 06:25:08;;;;;;;12.90;4.38;;;;;;;;;;4952424;28;20526;-86
2021/11/23 06:27:36;;;;;;;12.38;4.85;;;;;;;;;;4943309;28;20042;-86
2021/11/23 06:30:07;;;;;;;12.95;4.68;;;;;;;;;;4942395;28;20669;-86
2021/11/23 06:32:38;;;;;;;12.77;4.50;;;;;;;;;;4956387;28;20360;-86
2021/11/23 06:35:06;;;;;;;14.20;4.72;;;;;;;;;;4939236;28;20070;-87
2021/11/23 06:37:36;;;;;;;13.40;4.60;;;;;;;;;;4945370;28;20815;-88
2021/11/23 06:40:06;;;;;;;14.50;5.32;;;;;;;;;;4952566;28;20051;-87
2021/11/23 06:42:33;;;;;;;12.80;4.25;;;;;;;;;;4941521;28;20039;-87
2021/11/23 06:45:01;;;;;;;12.98;4.20;;;;;;;;;;4957214;28;20033;-87
2021/11/23 06:47:30;;;;;;;12.18;4.38;;;;;;;;;;4952075;28;20066;-87
2021/11/23 06:49:57;;;;;;;10.98;4.28;;;;;;;;;;4941259;28;20043;-87
2021/11/23 06:52:27;;;;;;;14.07;4.53;;;;;;;;;;4935421;28;20097;-85
2021/11/23 06:55:00;;;;;;;15.85;4.60;;;;;;;;;;4941306;28;20042;-86
2021/11/23 06:57:28;;;;;;;14.90;5.32;;;;;;;;;;4913497;28;20355;-87
2021/11/23 06:59:56;;;;;;;12.60;4.80;;;;;;;;;;4951207;28;20027;-86
2021/11/23 07:02:24;;;;;;;12.60;5.65;;;;;;;;;;4921028;28;20590;-85
2021/11/23 07:04:53;;;;;;;14.68;5.63;;;;;;;;;;4952081;28;20043;-85
2021/11/23 07:07:21;;;;;;;16.27;7.03;;;;;;;;;;4924881;28;20178;-85
2021/11/23 07:09:49;;;;;;;14.88;6.10;;;;;;;;;;4954402;28;20073;-85
2021/11/23 07:12:17;;;;;;;14.20;5.95;;;;;;;;;;4945962;28;20030;-85
2021/11/23 07:14:44;;;;;;;16.33;7.22;;;;;;;;;;4932839;28;20039;-85
2021/11/23 07:17:14;;;;;;;16.70;7.20;;;;;;;;;;4952533;28;20039;-85
2021/11/23 07:19:40;;;;;;;15.07;6.13;;;;;;;;;;4932043;28;20054;-85
2021/11/23 07:22:06;;;;;;;;;;;;;;;;;;4900637;28;20131;-86
2021/11/23 07:24:36;;;;;;;14.63;5.63;;;;;;;;;;4921041;28;19927;-86
2021/11/23 07:27:09;;;;;;;17.05;7.30;;;;;;;;;;4927584;28;20566;-87
2021/11/23 07:29:38;;;;;;;13.40;6.07;;;;;;;;;;4926898;28;20050;-86
2021/11/23 07:32:08;;;;;;;15.20;5.45;;;;;;;;;;4928217;28;20035;-85
2021/11/23 07:34:38;;;;;;;16.58;5.50;;;;;;;;;;4919171;28;20142;-86
2021/11/23 07:37:04;;;;;;;12.30;4.85;;;;;;;;;;4917819;28;20104;-85
2021/11/23 07:39:34;;;;;;;14.48;5.75;;;;;;;;;;4942087;28;20055;-86
2021/11/23 07:42:01;;;;;;;12.85;5.13;;;;;;;;;;4949659;28;20062;-85
2021/11/23 07:44:28;;;;;;;14.63;5.20;;;;;;;;;;4921266;28;20054;-86
2021/11/23 07:46:57;;;;;;;13.50;5.03;;;;;;;;;;4935621;28;20466;-86
2021/11/23 07:49:25;;;;;;;13.25;5.13;;;;;;;;;;4939421;28;20047;-85
2021/11/23 07:51:53;;;;;;;17.38;5.03;;;;;;;;;;4916115;29;20058;-86
2021/11/23 07:54:22;;;;;;;16.73;4.63;;;;;;;;;;4931272;28;20034;-85
2021/11/23 07:56:50;;;;;;;15.30;4.70;;;;;;;;;;4934147;28;20109;-85
2021/11/23 07:59:17;;;;;;;12.75;4.65;;;;;;;;;;4916727;29;20431;-86
2021/11/23 08:01:45;;;;;;;13.93;4.65;;;;;;;;;;4927786;28;20039;-86
2021/11/23 08:04:15;;;;;;;15.23;5.13;;;;;;;;;;4916433;29;20067;-85
2021/11/23 08:06:44;;;;;;;18.98;5.47;;;;;;;;;;4916005;28;20039;-85
2021/11/23 08:09:11;;;;;;;16.42;5.22;;;;;;;;;;4931748;28;20047;-85
2021/11/23 08:11:41;;;;;;;13.73;4.50;;;;;;;;;;4940241;28;20023;-85
2021/11/23 08:14:10;;;;;;;16.88;4.68;;;;;;;;;;4922637;28;20094;-86
2021/11/23 08:16:37;;;;;;;12.40;4.18;;;;;;;;;;4953993;28;20142;-85
2021/11/23 08:19:05;;;;;;;11.00;4.30;;;;;;;;;;4943897;28;20631;-85
2021/11/23 08:21:32;;;;;;;13.75;4.03;;;;;;;;;;4954029;28;20081;-85
2021/11/23 08:24:02;;;;;;;17.65;4.53;;;;;;;;;;4952298;28;20027;-85
2021/11/23 08:26:28;;;;;;;10.65;4.38;;;;;;;;;;4951623;28;20126;-84
2021/11/23 08:28:54;;;;;;;;;;;;;;;;;;4921447;28;20043;-85
2021/11/23 08:31:23;;;;;;;15.23;4.78;;;;;;;;;;4938395;28;19929;-85
2021/11/23 08:33:52;;;;;;;14.20;4.40;;;;;;;;;;4934962;28;20039;-85
2021/11/23 08:36:20;;;;;;;14.88;4.53;;;;;;;;;;4935463;28;20039;-85
2021/11/23 08:38:46;;;;;;;13.45;5.00;;;;;;;;;;4950663;28;20083;-86
2021/11/23 08:41:13;;;;;;;;;;;;;;;;;;4934402;28;20043;-85
2021/11/23 08:43:42;;;;;;;13.65;5.10;;;;;;;;;;4938652;28;19940;-86
2021/11/23 08:46:10;;;;;;;11.70;4.43;;;;;;;;;;4916752;28;20130;-86
2021/11/23 08:48:38;;;;;;;11.25;4.82;;;;;;;;;;4954391;28;20066;-85
2021/11/23 08:51:12;;;;;;;12.35;4.80;;;;;;;;;;4933882;28;20043;-85
2021/11/23 08:53:38;;;;;;;13.40;5.35;;;;;;;;;;4946738;28;20156;-85
2021/11/23 08:56:08;;;;;;;;;;;;;;;;;;4933367;28;20102;-85
2021/11/23 08:58:36;;;;;;;12.95;4.70;;;;;;;;;;4935150;28;19925;-86
2021/11/23 09:01:04;;;;;;;14.40;4.88;;;;;;;;;;4921115;28;20283;-85
2021/11/23 09:03:32;;;;;;;17.67;5.45;;;;;;;;;;4937244;28;20292;-86
2021/11/23 09:06:02;;;;;;;11.20;5.35;;;;;;;;;;4945509;28;20452;-86
2021/11/23 09:08:30;;;;;;;14.02;6.75;;;;;;;;;;4937084;28;20057;-86
2021/11/23 09:10:58;;;;;;;12.63;5.07;;;;;;;;;;4949750;28;20043;-85
2021/11/23 09:13:27;;;;;;;15.82;6.00;;;;;;;;;;4932478;28;20051;-86
2021/11/23 09:15:53;;;;;;;13.57;5.60;;;;;;;;;;4933644;28;20042;-85
2021/11/23 09:18:20;;;;;;;13.07;4.40;;;;;;;;;;4950435;28;20026;-85
2021/11/23 09:20:47;;;;;;;12.95;4.35;;;;;;;;;;4931730;28;20034;-85
2021/11/23 09:23:18;;;;;;;13.00;3.72;;;;;;;;;;4954001;28;20046;-85
2021/11/23 09:25:44;;;;;;;14.77;4.50;;;;;;;;;;4936840;28;20034;-85
2021/11/23 09:28:12;;;;;;;11.75;3.75;;;;;;;;;;4934950;28;20565;-86
2021/11/23 09:30:44;;;;;;;12.95;3.83;;;;;;;;;;4922973;28;20039;-86
2021/11/23 09:33:11;;;;;;;12.50;4.65;;;;;;;;;;4907363;28;20045;-85
2021/11/23 09:35:38;;;;;;;13.85;4.35;;;;;;;;;;4950001;28;20073;-86
2021/11/23 09:38:07;;;;;;;14.80;5.38;;;;;;;;;;4940381;28;20101;-85
2021/11/23 09:40:35;;;;;;;14.13;4.85;;;;;;;;;;4950658;28;20043;-86
2021/11/23 09:43:04;;;;;;;13.68;4.47;;;;;;;;;;4937741;28;20229;-85
2021/11/23 09:45:32;;;;;;;12.73;4.78;;;;;;;;;;4953461;28;20049;-86
2021/11/23 09:48:17;;;;;;;14.05;4.03;;;;;;;;;;4950450;28;20115;-86
2021/11/23 09:50:45;;;;;;;13.90;4.95;;;;;;;;;;4935007;28;20640;-85
2021/11/23 09:53:18;;;;;;;12.85;5.38;;;;;;;;;;4958261;28;20059;-85
2021/11/23 09:55:47;;;;;;;17.27;6.72;;;;;;;;;;4940425;28;20070;-85
2021/11/23 09:58:14;;;;;;;15.43;5.72;;;;;;;;;;4921650;28;20121;-87
2021/11/23 10:00:48;;;;;;;13.02;5.32;;;;;;;;;;4940405;28;20043;-84
2021/11/23 10:03:33;;;;;;;15.75;4.32;;;;;;;;;;4936998;28;20015;-85
2021/11/23 10:06:14;;;;;;;11.45;4.03;;;;;;;;;;4934828;28;20130;-87
2021/11/23 10:08:43;;;;;;;14.02;4.70;;;;;;;;;;4938621;28;20655;-86
2021/11/23 10:11:11;;;;;;;9.10;3.58;;;;;;;;;;4951611;28;21403;-85
2021/11/23 10:13:45;;;;;;;13.60;4.40;;;;;;;;;;4921324;28;20069;-86
2021/11/23 10:16:14;;;;;;;17.00;6.22;;;;;;;;;;4956270;28;20185;-85
2021/11/23 10:18:42;;;;;;;11.95;4.97;;;;;;;;;;4934084;28;20039;-85
2021/11/23 10:21:12;;;;;;;11.57;4.57;;;;;;;;;;4936682;28;20146;-86
2021/11/23 10:23:41;;;;;;;14.38;4.97;;;;;;;;;;4919929;28;20066;-85
2021/11/23 10:26:15;;;;;;;12.57;4.45;;;;;;;;;;4937826;28;20067;-85
2021/11/23 10:28:45;;;;;;;10.13;3.40;;;;;;;;;;4953128;28;20066;-85
2021/11/23 10:31:16;;;;;;;10.75;3.85;;;;;;;;;;4937083;28;20035;-85
2021/11/23 10:33:44;;;;;;;13.20;4.60;;;;;;;;;;4937290;28;20063;-85
2021/11/23 10:36:35;;;;;;;13.70;4.57;;;;;;;;;;4951407;28;20501;-85
2021/11/23 10:39:15;;;;;;;13.05;4.05;;;;;;;;;;4954281;28;20735;-85
2021/11/23 10:41:49;;;;;;;11.68;3.72;;;;;;;;;;4952231;28;20043;-85
2021/11/23 10:44:17;;;;;;;16.05;7.78;;;;;;;;;;4921514;28;20039;-85
2021/11/23 10:46:55;;;;;;;11.82;5.78;;;;;;;;;;4926166;28;21005;-85
2021/11/23 10:49:43;;;;;;;17.50;5.80;;;;;;;;;;4950836;28;20039;-86
2021/11/23 10:52:11;;;;;;;;;;;;;;;;;;4942337;28;20045;-86
2021/11/23 10:54:37;;;;;;;;;;;;;;;;;;4933800;28;20016;-86
2021/11/23 10:57:06;;;;;;;10.73;3.90;;;;;;;;;;4940548;28;20425;-86
2021/11/23 10:59:48;;;;;;;13.80;4.45;;;;;;;;;;4926728;28;20039;-85
2021/11/23 11:02:17;;;;;;;11.85;4.88;;;;;;;;;;4938151;28;20038;-86
2021/11/23 11:04:45;;;;;;;18.85;7.50;;;;;;;;;;4938748;28;20217;-87
2021/11/23 11:07:11;;;;;;;17.52;6.60;;;;;;;;;;4934139;28;20055;-88
2021/11/23 11:09:40;;;;;;;22.05;7.85;;;;;;;;;;4943935;28;20034;-90
2021/11/23 11:12:11;;;;;;;20.05;7.63;;;;;;;;;;4934370;28;20038;-90
2021/11/23 11:14:40;;;;;;;13.43;6.95;;;;;;;;;;4963963;28;20046;-89
2021/11/23 11:17:08;;;;;;;16.65;8.35;;;;;;;;;;4932125;28;20046;-88
2021/11/23 11:19:49;;;;;;;17.90;7.75;;;;;;;;;;4976933;28;20138;-89
2021/11/23 11:22:22;;;;;;;13.90;5.80;;;;;;;;;;4965233;28;20054;-87
2021/11/23 11:25:17;;;;;;;13.93;7.07;;;;;;;;;;4960941;28;20039;-87
2021/11/23 11:27:49;;;;;;;14.13;7.47;;;;;;;;;;4968813;28;20038;-87
2021/11/23 11:30:21;;;;;;;15.13;7.75;;;;;;;;;;4958751;28;20141;-86
2021/11/23 11:32:50;;;;;;;15.15;8.02;;;;;;;;;;4956853;28;20129;-85
2021/11/23 11:35:47;;;;;;;18.40;9.43;;;;;;;;;;4944129;28;20122;-86
2021/11/23 11:38:37;;;;;;;17.48;8.70;;;;;;;;;;4958503;28;20046;-86
2021/11/23 11:41:07;;;;;;;14.60;7.30;;;;;;;;;;4945033;28;20128;-86
2021/11/23 11:43:43;;;;;;;14.35;6.18;;;;;;;;;;4935571;28;20059;-85
2021/11/23 11:46:44;;;;;;;14.10;5.32;;;;;;;;;;4949002;28;20034;-85
2021/11/23 11:49:14;;;;;;;16.48;8.48;;;;;;;;;;4938345;28;20836;-85
2021/11/23 11:51:43;;;;;;;20.00;10.88;;;;;;;;;;4940068;28;20043;-87
2021/11/23 11:54:36;;;;;;;17.88;9.30;;;;;;;;;;4948344;28;20049;-88
2021/11/23 11:57:04;;;;;;;20.60;11.48;;;;;;;;;;4945893;28;20178;-87
2021/11/23 11:59:32;;;;;;;10.43;3.83;;;;;;;;;;4951016;28;20119;-86
2021/11/23 12:02:15;;;;;;;18.92;9.00;;;;;;;;;;4951983;28;20050;-85
2021/11/23 12:05:16;;;;;;;15.00;6.88;;;;;;;;;;4912433;28;20042;-85
2021/11/23 12:07:44;;;;;;;12.90;5.70;;;;;;;;;;4895005;29;20043;-85
2021/11/23 12:10:33;;;;;;;12.70;5.72;;;;;;;;;;4830879;29;20033;-85
2021/11/23 12:13:13;;;;;;;12.15;5.70;;;;;;;;;;4895197;29;20107;-85
2021/11/23 12:16:02;;;;;;;10.40;3.78;;;;;;;;;;4893445;29;20660;-86
2021/11/23 12:18:47;;;;;;;14.90;7.30;;;;;;;;;;4889701;29;20316;-85
2021/11/23 12:21:19;;;;;;;11.45;4.90;;;;;;;;;;4891978;29;20961;-86
2021/11/23 12:23:56;;;;;;;15.20;5.40;;;;;;;;;;4881028;29;20115;-86
2021/11/23 12:26:47;;;;;;;9.90;4.32;;;;;;;;;;4891927;29;20135;-86
2021/11/23 12:29:16;;;;;;;13.43;4.90;;;;;;;;;;4885299;29;20612;-86
2021/11/23 12:31:52;;;;;;;11.55;4.50;;;;;;;;;;4903121;29;20063;-85
2021/11/23 12:34:30;;;;;;;14.02;6.30;;;;;;;;;;4898890;29;20032;-87
2021/11/23 12:37:05;;;;;;;17.85;8.25;;;;;;;;;;4898559;29;20047;-87
2021/11/23 12:39:51;;;;;;;15.32;7.70;;;;;;;;;;4899155;29;20040;-88
2021/11/23 12:42:24;;;;;;;15.52;7.40;;;;;;;;;;4890322;29;20081;-86
2021/11/23 12:44:53;;;;;;;16.98;9.05;;;;;;;;;;4903244;28;20054;-87
2021/11/23 12:47:21;;;;;;;12.88;5.70;;;;;;;;;;4918040;28;20035;-86
2021/11/23 12:49:57;;;;;;;11.80;4.22;;;;;;;;;;4916141;28;20501;-86
2021/11/23 12:52:31;;;;;;;9.85;3.92;;;;;;;;;;4920565;28;20526;-87
2021/11/23 12:54:58;;;;;;;10.68;4.80;;;;;;;;;;4934811;28;20043;-86
2021/11/23 12:57:31;;;;;;;8.93;3.72;;;;;;;;;;4925631;29;20044;-87
2021/11/23 13:00:02;;;;;;;9.60;3.67;;;;;;;;;;4916620;29;20058;-88
2021/11/23 13:02:38;;;;;;;9.35;3.85;;;;;;;;;;4899973;29;20047;-87
2021/11/23 13:05:17;;;;;;;8.20;2.95;;;;;;;;;;4885976;29;20044;-89
2021/11/23 13:07:56;;;;;;;11.32;4.25;;;;;;;;;;4907658;29;20082;-88
2021/11/23 13:10:27;;;;;;;10.48;3.33;;;;;;;;;;4918024;29;20912;-88
2021/11/23 13:13:05;;;;;;;9.20;3.38;;;;;;;;;;4918319;29;20036;-89
2021/11/23 13:15:35;;;;;;;10.90;3.97;;;;;;;;;;4924872;29;20118;-88
2021/11/23 13:18:32;;;;;;;9.80;3.88;;;;;;;;;;4927683;29;20032;-87
2021/11/23 13:21:06;;;;;;;11.20;3.33;;;;;;;;;;4898560;29;20040;-88
2021/11/23 13:23:38;;;;;;;11.98;3.60;;;;;;;;;;4896710;29;20036;-88
2021/11/23 13:26:18;;;;;;;9.73;3.80;;;;;;;;;;4896899;29;20040;-89
2021/11/23 13:29:00;;;;;;;8.38;2.63;;;;;;;;;;4883577;29;20031;-87
2021/11/23 13:31:34;;;;;;;8.68;2.88;;;;;;;;;;4882026;29;20441;-87
2021/11/23 13:34:15;;;;;;;9.02;2.90;;;;;;;;;;4875499;29;20045;-89
2021/11/23 13:36:49;;;;;;;8.30;2.63;;;;;;;;;;4860378;29;20564;-87
2021/11/23 13:39:19;;;;;;;8.90;2.45;;;;;;;;;;4882558;29;20036;-87
2021/11/23 13:41:50;;;;;;;10.88;2.70;;;;;;;;;;4871478;29;20116;-88
2021/11/23 13:44:30;;;;;;;9.10;3.60;;;;;;;;;;4880845;29;20049;-87
2021/11/23 13:47:00;;;;;;;11.68;3.55;;;;;;;;;;4884987;29;20528;-87
2021/11/23 13:49:29;;;;;;;10.15;2.92;;;;;;;;;;4864461;29;20041;-87
2021/11/23 13:52:08;;;;;;;10.48;3.95;;;;;;;;;;4883362;29;20041;-87
2021/11/23 13:54:48;;;;;;;15.30;6.90;;;;;;;;;;4903405;29;20046;-87
2021/11/23 13:57:36;;;;;;;12.38;3.97;;;;;;;;;;4939639;28;20113;-88
2021/11/23 14:00:10;;;;;;;13.10;4.75;;;;;;;;;;4956867;28;20042;-86
2021/11/23 14:03:13;;;;;;;10.02;4.05;;;;;;;;;;4940401;28;20043;-86
2021/11/23 14:05:59;;;;;;;14.52;5.30;;;;;;;;;;4883011;29;20954;-87
2021/11/23 14:08:33;;;;;;;18.13;10.25;;;;;;;;;;4882381;29;20045;-88
2021/11/23 14:11:04;;;;;;;54.00;42.08;;;;;;;;;;4888328;29;20066;-88
2021/11/23 14:13:36;;;;;;;57.78;44.65;;;;;;;;;;4885058;29;20616;-88
2021/11/23 14:16:17;;;;;;;28.08;17.95;;;;;;;;;;4883768;29;20052;-88
2021/11/23 14:18:46;;;;;;;16.80;6.95;;;;;;;;;;4881701;29;20045;-88
2021/11/23 14:21:16;;;;;;;26.60;13.40;;;;;;;;;;4880115;29;20057;-87
2021/11/23 14:23:43;;;;;;;27.40;16.15;;;;;;;;;;4872106;29;20029;-88
2021/11/23 14:26:42;;;;;;;20.50;12.32;;;;;;;;;;4890333;29;20162;-88
2021/11/23 14:29:14;;;;;;;17.58;10.50;;;;;;;;;;4843842;29;20129;-90
2021/11/23 14:31:43;;;;;;;19.10;10.85;;;;;;;;;;4867611;29;20041;-87
2021/11/23 14:34:12;;;;;;;20.10;10.90;;;;;;;;;;4856645;29;20418;-88
2021/11/23 14:36:44;;;;;;;23.60;13.20;;;;;;;;;;4855592;29;20044;-88
2021/11/23 14:39:14;;;;;;;29.80;22.40;;;;;;;;;;4874117;29;20041;-87
2021/11/23 14:41:44;;;;;;;309.52;260.83;;;;;;;;;;4868067;29;20045;-87
2021/11/23 14:44:12;;;;;;;35.80;25.92;;;;;;;;;;4873187;29;20047;-89
2021/11/23 14:46:43;;;;;;;23.00;12.35;;;;;;;;;;4885987;29;20037;-88
2021/11/23 14:49:11;;;;;;;28.00;16.42;;;;;;;;;;4872149;29;20152;-87
2021/11/23 14:51:41;;;;;;;21.13;11.93;;;;;;;;;;4871565;29;20047;-88
2021/11/23 14:54:09;;;;;;;18.73;11.25;;;;;;;;;;4869859;29;20107;-86